Time;durP1;ratioP1;P1;durP2;ratioP2;P2;SDS_P1;SDS_P2;PMS_P1;PMS_P2;Temp;Humidity;BMP_temperature;BMP_pressure;BME280_temperature;BME280_humidity;BME280_pressure;Samples;Min_cycle;Max_cycle;Signal;HPM_P1;HPM_P2
2022/08/28 00:02:23;;;;;;;21.35;18.30;;;18.20;86.70;;;;;;5013730;28;20034;-74
2022/08/28 00:04:49;;;;;;;20.33;16.02;;;18.30;87.40;;;;;;5013109;28;20041;-74
2022/08/28 00:07:15;;;;;;;18.02;14.55;;;18.30;87.10;;;;;;5013268;28;20113;-74
2022/08/28 00:09:40;;;;;;;23.05;16.25;;;18.40;87.10;;;;;;5013299;28;20037;-75
2022/08/28 00:12:07;;;;;;;16.38;12.95;;;18.40;87.00;;;;;;5013149;28;20034;-74
2022/08/28 00:14:33;;;;;;;18.55;14.80;;;18.50;86.90;;;;;;5013303;28;20038;-74
2022/08/28 00:16:59;;;;;;;22.15;17.15;;;18.50;86.80;;;;;;5013354;28;20025;-74
2022/08/28 00:19:24;;;;;;;20.38;17.15;;;18.50;86.70;;;;;;4995700;28;20507;-74
2022/08/28 00:21:50;;;;;;;18.30;14.88;;;18.50;86.50;;;;;;5013096;28;20022;-74
2022/08/28 00:24:17;;;;;;;22.38;16.08;;;18.50;86.50;;;;;;5013307;28;20053;-74
2022/08/28 00:29:27;;;;;;;19.00;13.15;;;18.60;86.40;;;;;;5013623;28;20396;-74
2022/08/28 00:31:54;;;;;;;22.27;17.42;;;18.60;86.50;;;;;;5013047;28;20029;-74
2022/08/28 00:34:19;;;;;;;25.20;17.35;;;18.60;86.50;;;;;;5013087;28;20537;-74
2022/08/28 00:36:45;;;;;;;21.10;16.23;;;18.60;86.30;;;;;;4995445;28;20030;-74
2022/08/28 00:39:10;;;;;;;17.90;14.48;;;18.70;86.30;;;;;;5014212;28;20026;-74
2022/08/28 00:41:39;;;;;;;21.52;17.70;;;18.70;86.20;;;;;;5017105;28;20531;-74
2022/08/28 00:44:06;;;;;;;19.65;16.77;;;18.60;86.20;;;;;;5017119;28;20025;-74
2022/08/28 00:46:31;;;;;;;26.33;15.73;;;18.60;86.30;;;;;;5017051;28;20044;-74
2022/08/28 00:48:57;;;;;;;17.50;14.50;;;18.60;86.30;;;;;;5016822;28;20478;-74
2022/08/28 00:54:08;;;;;;;20.65;16.27;;;18.60;86.10;;;;;;5016806;28;20184;-74
2022/08/28 00:56:34;;;;;;;17.95;14.75;;;18.60;86.00;;;;;;5016651;28;20048;-74
2022/08/28 00:59:04;;;;;;;19.40;16.65;;;18.60;86.00;;;;;;5016478;28;20034;-74
2022/08/28 01:01:30;;;;;;;20.27;16.08;;;18.60;86.00;;;;;;5016837;28;20062;-74
2022/08/28 01:03:56;;;;;;;19.95;16.05;;;18.60;86.00;;;;;;5016470;28;20387;-74
2022/08/28 01:06:21;;;;;;;18.75;16.13;;;18.50;85.80;;;;;;5016471;28;20079;-74
2022/08/28 01:08:48;;;;;;;19.70;15.32;;;18.50;85.80;;;;;;5016876;28;20026;-74
2022/08/28 01:11:15;;;;;;;15.85;13.93;;;18.50;85.70;;;;;;5021756;28;20026;-75
2022/08/28 01:13:47;;;;;;;21.23;15.50;;;18.50;85.60;;;;;;5016399;28;20040;-74
2022/08/28 01:16:16;;;;;;;20.83;17.40;;;18.50;85.70;;;;;;4998996;28;20141;-75
2022/08/28 01:18:42;;;;;;;20.17;15.02;;;18.50;85.70;;;;;;5016327;28;20037;-75
2022/08/28 01:21:20;;;;;;;21.00;17.42;;;18.60;85.50;;;;;;5016471;28;20046;-74
2022/08/28 01:24:08;;;;;;;22.70;18.33;;;18.60;85.40;;;;;;5016213;28;20037;-74
2022/08/28 01:26:34;;;;;;;25.52;19.95;;;18.50;85.40;;;;;;5016057;28;20037;-74
2022/08/28 01:29:01;;;;;;;22.02;17.50;;;18.40;85.60;;;;;;5015871;28;20123;-74
2022/08/28 01:31:29;;;;;;;18.73;15.52;;;18.40;85.70;;;;;;5016118;28;20093;-74
2022/08/28 01:33:55;;;;;;;22.23;17.23;;;18.40;85.90;;;;;;5016017;28;20038;-74
2022/08/28 01:36:21;;;;;;;18.85;16.85;;;18.40;86.10;;;;;;5015895;28;20378;-74
2022/08/28 01:38:54;;;;;;;24.75;20.58;;;18.30;86.10;;;;;;5015967;28;20502;-74
2022/08/28 01:41:20;;;;;;;21.83;16.75;;;18.30;86.30;;;;;;5015984;28;20025;-75
2022/08/28 01:43:45;;;;;;;20.25;15.13;;;18.30;86.50;;;;;;5015892;28;20084;-74
2022/08/28 01:46:11;;;;;;;18.63;16.02;;;18.30;87.50;;;;;;5015753;28;20512;-74
2022/08/28 01:48:41;;;;;;;16.58;14.77;;;18.30;86.70;;;;;;5015903;28;20467;-74
2022/08/28 01:51:07;;;;;;;16.52;14.45;;;18.30;86.70;;;;;;5015749;28;20018;-74
2022/08/28 01:53:33;;;;;;;19.20;15.57;;;18.40;86.70;;;;;;4997994;28;20399;-75
2022/08/28 01:56:03;;;;;;;18.02;14.65;;;18.40;86.70;;;;;;5015750;28;20108;-74
2022/08/28 01:58:29;;;;;;;23.48;18.05;;;18.40;86.80;;;;;;5015696;28;20029;-74
2022/08/28 02:00:55;;;;;;;21.85;18.27;;;18.40;86.90;;;;;;5015422;28;20041;-74
2022/08/28 02:03:22;;;;;;;17.92;15.27;;;18.30;86.90;;;;;;5015465;28;20421;-74
2022/08/28 02:05:48;;;;;;;16.75;14.98;;;18.30;87.00;;;;;;5015522;28;20087;-74
2022/08/28 02:08:14;;;;;;;20.85;17.00;;;18.30;87.00;;;;;;5015514;28;20018;-74
2022/08/28 02:10:41;;;;;;;21.48;17.08;;;18.40;87.00;;;;;;5015273;28;20486;-74
2022/08/28 02:13:08;;;;;;;20.85;17.55;;;18.40;86.90;;;;;;5015235;28;20030;-74
2022/08/28 02:15:35;;;;;;;23.42;17.17;;;18.40;86.60;;;;;;4997783;28;20026;-74
2022/08/28 02:18:01;;;;;;;24.85;19.55;;;18.40;86.60;;;;;;5015399;28;20026;-74
2022/08/28 02:20:28;;;;;;;22.58;18.65;;;18.30;86.20;;;;;;5015213;28;20036;-74
2022/08/28 02:22:56;;;;;;;20.13;15.85;;;18.20;86.40;;;;;;4997650;28;20109;-74
2022/08/28 02:25:22;;;;;;;22.08;19.05;;;18.20;86.50;;;;;;5015239;28;20471;-74
2022/08/28 02:27:48;;;;;;;19.02;15.73;;;18.20;86.50;;;;;;5015107;28;20121;-74
2022/08/28 02:30:16;;;;;;;20.55;17.90;;;18.30;86.70;;;;;;5014914;28;20097;-74
2022/08/28 02:32:42;;;;;;;19.40;15.95;;;18.20;86.60;;;;;;5015065;28;20038;-74
2022/08/28 02:35:09;;;;;;;16.98;14.23;;;18.30;86.60;;;;;;5015059;28;20040;-74
2022/08/28 02:37:35;;;;;;;19.23;16.27;;;18.30;86.40;;;;;;5014887;28;20030;-74
2022/08/28 02:40:02;;;;;;;21.67;16.10;;;18.30;86.20;;;;;;5014785;28;20025;-73
2022/08/28 02:42:28;;;;;;;18.83;14.27;;;18.40;86.00;;;;;;5014750;28;20057;-74
2022/08/28 02:44:53;;;;;;;18.73;15.60;;;18.40;85.80;;;;;;5014859;28;20048;-73
2022/08/28 02:47:19;;;;;;;14.93;13.05;;;18.40;85.70;;;;;;5014597;28;20022;-73
2022/08/28 02:49:44;;;;;;;15.95;13.73;;;18.40;85.70;;;;;;5014745;28;20026;-73
2022/08/28 02:52:11;;;;;;;16.88;13.43;;;18.50;85.80;;;;;;4997045;28;20104;-73
2022/08/28 02:54:38;;;;;;;16.83;14.55;;;18.40;85.60;;;;;;5014706;28;20133;-74
2022/08/28 02:57:05;;;;;;;16.00;14.20;;;18.50;85.50;;;;;;5014443;28;20153;-74
2022/08/28 02:59:31;;;;;;;19.80;16.27;;;18.40;85.30;;;;;;5014429;28;20038;-74
2022/08/28 03:01:56;;;;;;;16.40;14.23;;;18.40;85.30;;;;;;5014276;28;20030;-74
2022/08/28 03:04:22;;;;;;;22.98;17.90;;;18.40;85.40;;;;;;5014478;28;20033;-74
2022/08/28 03:06:48;;;;;;;18.60;16.05;;;18.50;85.50;;;;;;5014246;28;20129;-74
2022/08/28 03:09:14;;;;;;;18.10;15.30;;;18.40;85.50;;;;;;5014328;28;20022;-74
2022/08/28 03:11:40;;;;;;;17.77;14.40;;;18.40;85.50;;;;;;5014223;28;20049;-74
2022/08/28 03:14:06;;;;;;;19.88;15.43;;;18.50;85.70;;;;;;5013916;28;20042;-74
2022/08/28 03:16:32;;;;;;;19.80;15.35;;;18.50;85.80;;;;;;5014165;28;20021;-73
2022/08/28 03:18:58;;;;;;;17.25;13.07;;;18.50;85.80;;;;;;5014154;28;20117;-74
2022/08/28 03:21:24;;;;;;;21.08;14.70;;;18.50;85.80;;;;;;4996480;28;20486;-74
2022/08/28 03:23:49;;;;;;;17.38;14.73;;;18.50;85.80;;;;;;5013926;28;20036;-74
2022/08/28 03:26:18;;;;;;;17.65;14.50;;;18.40;85.70;;;;;;5014128;28;20026;-74
2022/08/28 03:28:50;;;;;;;21.90;16.80;;;18.40;85.80;;;;;;5014003;28;20021;-74
2022/08/28 03:31:19;;;;;;;21.70;16.90;;;18.40;85.80;;;;;;5014021;28;20049;-74
2022/08/28 03:33:46;;;;;;;16.52;14.45;;;18.40;86.00;;;;;;5013738;28;20037;-74
2022/08/28 03:36:15;;;;;;;22.90;17.70;;;18.40;86.00;;;;;;5014002;28;20068;-74
2022/08/28 03:38:41;;;;;;;18.55;15.30;;;18.40;86.10;;;;;;5013728;28;20362;-74
2022/08/28 03:41:18;;;;;;;19.30;16.50;;;18.40;86.00;;;;;;5013755;28;20036;-74
2022/08/28 03:43:44;;;;;;;19.08;15.30;;;18.30;86.00;;;;;;5013843;28;20033;-74
2022/08/28 03:46:14;;;;;;;21.45;16.70;;;18.30;86.00;;;;;;5013765;28;20021;-73
2022/08/28 03:48:40;;;;;;;21.90;18.50;;;18.30;86.20;;;;;;5013740;28;20140;-73
2022/08/28 03:51:11;;;;;;;16.58;14.05;;;18.30;86.00;;;;;;5013454;28;20084;-74
2022/08/28 03:53:37;;;;;;;20.00;16.02;;;18.30;86.00;;;;;;5013628;28;20343;-74
2022/08/28 03:56:11;;;;;;;16.75;14.93;;;18.30;85.90;;;;;;5013568;28;20030;-74
2022/08/28 03:58:37;;;;;;;18.90;15.25;;;18.30;85.80;;;;;;5013513;28;20109;-74
2022/08/28 04:01:03;;;;;;;15.90;13.82;;;18.20;85.80;;;;;;5013290;28;20145;-73
2022/08/28 04:03:28;;;;;;;18.15;15.32;;;18.20;85.90;;;;;;5013435;28;20030;-73
2022/08/28 04:05:54;;;;;;;16.13;13.85;;;18.20;86.40;;;;;;5013450;28;20049;-73
2022/08/28 04:08:21;;;;;;;17.33;13.75;;;18.30;86.20;;;;;;5013210;28;20053;-73
2022/08/28 04:10:47;;;;;;;15.10;12.38;;;18.30;86.10;;;;;;5013366;28;20021;-73
2022/08/28 04:13:15;;;;;;;14.73;13.10;;;18.40;86.10;;;;;;5012566;28;20033;-73
2022/08/28 04:15:41;;;;;;;14.68;12.50;;;18.30;86.00;;;;;;5013083;28;20092;-73
2022/08/28 04:18:07;;;;;;;22.13;15.77;;;18.30;86.00;;;;;;5013103;28;20026;-73
2022/08/28 04:20:33;;;;;;;15.30;11.95;;;18.20;85.80;;;;;;5013171;28;20498;-73
2022/08/28 04:23:02;;;;;;;15.88;12.55;;;18.20;85.80;;;;;;5013316;28;20034;-73
2022/08/28 04:25:28;;;;;;;14.82;12.98;;;18.20;86.00;;;;;;4995545;28;20525;-73
2022/08/28 04:27:53;;;;;;;13.35;12.02;;;18.20;86.00;;;;;;5013064;28;20030;-72
2022/08/28 04:30:19;;;;;;;18.90;14.25;;;18.20;85.90;;;;;;5013181;28;20030;-73
2022/08/28 04:32:45;;;;;;;12.85;11.52;;;18.20;85.90;;;;;;5013039;28;20036;-73
2022/08/28 04:35:11;;;;;;;17.20;13.57;;;18.10;86.00;;;;;;5013038;28;20029;-73
2022/08/28 04:37:38;;;;;;;17.80;13.32;;;18.10;86.00;;;;;;5013104;28;20105;-73
2022/08/28 04:40:05;;;;;;;15.63;13.35;;;18.10;86.10;;;;;;5013026;28;20033;-72
2022/08/28 04:42:30;;;;;;;14.90;13.35;;;18.20;86.00;;;;;;4995521;28;20017;-73
2022/08/28 04:44:58;;;;;;;15.43;13.40;;;18.20;85.70;;;;;;5012891;28;20386;-74
2022/08/28 04:47:27;;;;;;;18.10;14.35;;;18.20;85.50;;;;;;5012848;28;20032;-73
2022/08/28 04:49:54;;;;;;;21.75;16.08;;;18.20;85.40;;;;;;5012916;28;20033;-73
2022/08/28 04:52:21;;;;;;;14.85;12.85;;;18.20;85.40;;;;;;5012699;28;20068;-73
2022/08/28 04:54:46;;;;;;;15.30;13.55;;;18.20;85.40;;;;;;5012778;28;20364;-73
2022/08/28 04:57:12;;;;;;;18.15;14.70;;;18.20;85.60;;;;;;5012956;28;20028;-74
2022/08/28 04:59:38;;;;;;;16.45;14.05;;;18.10;85.50;;;;;;5012686;28;20049;-74
2022/08/28 05:02:04;;;;;;;14.98;11.85;;;18.10;85.20;;;;;;5014070;28;20053;-74
2022/08/28 05:04:30;;;;;;;14.63;13.05;;;18.10;85.10;;;;;;5013081;28;20479;-74
2022/08/28 05:06:55;;;;;;;14.70;12.60;;;18.10;85.10;;;;;;4995149;28;20084;-74
2022/08/28 05:09:21;;;;;;;16.83;13.38;;;18.10;85.00;;;;;;5012927;28;20054;-73
2022/08/28 05:11:48;;;;;;;18.02;13.95;;;18.00;84.90;;;;;;5012872;28;20026;-73
2022/08/28 05:14:14;;;;;;;16.55;12.98;;;17.90;85.10;;;;;;5012103;28;20475;-73
2022/08/28 05:16:42;;;;;;;13.07;11.52;;;18.00;85.20;;;;;;5012808;28;20030;-73
2022/08/28 05:19:08;;;;;;;13.07;11.75;;;18.00;85.40;;;;;;5012842;28;20101;-73
2022/08/28 05:21:33;;;;;;;12.95;11.65;;;18.00;85.50;;;;;;5012694;28;20526;-73
2022/08/28 05:23:59;;;;;;;13.32;11.57;;;18.00;85.60;;;;;;5012846;28;20075;-73
2022/08/28 05:26:26;;;;;;;12.88;9.95;;;18.00;85.50;;;;;;5015609;28;20026;-73
2022/08/28 05:28:54;;;;;;;10.98;9.82;;;18.10;86.40;;;;;;5016082;28;20032;-74
2022/08/28 05:31:21;;;;;;;15.93;12.57;;;18.10;85.50;;;;;;5016142;28;20030;-73
2022/08/28 05:33:48;;;;;;;11.32;9.40;;;18.10;85.30;;;;;;5016113;28;20042;-73
2022/08/28 05:36:15;;;;;;;11.07;9.88;;;18.10;85.30;;;;;;5016092;28;20374;-73
2022/08/28 05:38:41;;;;;;;15.18;11.25;;;18.20;85.40;;;;;;5015901;28;20026;-73
2022/08/28 05:41:07;;;;;;;12.82;10.65;;;18.20;85.50;;;;;;5016077;28;20022;-73
2022/08/28 05:43:34;;;;;;;12.02;10.82;;;18.30;85.50;;;;;;5015885;28;20037;-73
2022/08/28 05:46:01;;;;;;;12.82;10.93;;;18.30;85.40;;;;;;5015859;28;20034;-73
2022/08/28 05:48:30;;;;;;;15.95;13.13;;;18.40;85.10;;;;;;5015787;28;20394;-73
2022/08/28 05:51:08;;;;;;;11.35;10.18;;;18.40;84.90;;;;;;5015844;28;20137;-73
2022/08/28 05:53:36;;;;;;;14.20;11.52;;;18.50;84.60;;;;;;5015674;28;20034;-73
2022/08/28 05:56:04;;;;;;;12.02;9.75;;;18.60;84.10;;;;;;5015573;28;20041;-73
2022/08/28 05:58:31;;;;;;;14.60;11.23;;;18.70;83.80;;;;;;5015570;28;20546;-73
2022/08/28 06:01:11;;;;;;;13.93;11.55;;;18.90;83.30;;;;;;5015429;28;20061;-73
2022/08/28 06:03:39;;;;;;;10.75;9.65;;;18.90;82.90;;;;;;4998410;28;20492;-73
2022/08/28 06:06:06;;;;;;;13.75;11.70;;;18.90;82.60;;;;;;5015404;28;20463;-74
2022/08/28 06:08:32;;;;;;;15.52;12.95;;;19.00;82.40;;;;;;5015386;28;20474;-73
2022/08/28 06:11:00;;;;;;;11.93;10.73;;;19.20;82.20;;;;;;5015490;28;20030;-74
2022/08/28 06:13:26;;;;;;;16.90;12.95;;;19.30;81.80;;;;;;5015300;28;20482;-74
2022/08/28 06:15:52;;;;;;;14.02;12.00;;;19.30;81.30;;;;;;5015168;28;20038;-73
2022/08/28 06:18:17;;;;;;;13.02;11.00;;;19.40;80.90;;;;;;5015308;28;20026;-73
2022/08/28 06:20:45;;;;;;;13.20;10.23;;;19.40;80.70;;;;;;5015381;28;20037;-73
2022/08/28 06:23:13;;;;;;;13.63;11.98;;;19.50;80.80;;;;;;5015008;28;20144;-74
2022/08/28 06:25:44;;;;;;;12.35;9.93;;;19.50;80.50;;;;;;5015142;28;20033;-74
2022/08/28 06:28:10;;;;;;;10.38;9.27;;;19.60;80.20;;;;;;5015191;28;20104;-74
2022/08/28 06:30:37;;;;;;;11.43;10.25;;;19.60;80.00;;;;;;5015125;28;20026;-74
2022/08/28 06:33:04;;;;;;;17.08;11.48;;;19.70;80.20;;;;;;4997373;28;20065;-74
2022/08/28 06:35:30;;;;;;;11.98;10.35;;;19.80;80.20;;;;;;5014577;28;20037;-74
2022/08/28 06:37:59;;;;;;;14.55;11.77;;;19.80;80.00;;;;;;5014109;28;20054;-74
2022/08/28 06:40:25;;;;;;;14.20;12.68;;;19.90;79.90;;;;;;5014894;28;20446;-74
2022/08/28 06:42:51;;;;;;;14.95;12.30;;;19.90;79.70;;;;;;5014905;28;20022;-74
2022/08/28 06:45:17;;;;;;;13.10;10.82;;;19.90;79.80;;;;;;5014848;28;20029;-74
2022/08/28 06:47:43;;;;;;;21.10;17.70;;;19.90;80.00;;;;;;5014535;28;20436;-74
2022/08/28 06:50:08;;;;;;;26.60;20.35;;;19.80;80.00;;;;;;5014737;28;20064;-73
2022/08/28 06:52:34;;;;;;;25.17;20.48;;;19.80;80.20;;;;;;4996917;28;20018;-73
2022/08/28 06:55:00;;;;;;;25.52;19.70;;;19.80;80.60;;;;;;5014494;28;20041;-73
2022/08/28 06:57:26;;;;;;;23.70;18.67;;;19.80;80.80;;;;;;4997250;28;20029;-74
2022/08/28 06:59:56;;;;;;;27.35;20.75;;;19.80;80.70;;;;;;5014186;28;20042;-73
2022/08/28 07:02:21;;;;;;;32.95;24.63;;;19.90;80.60;;;;;;5014447;28;20018;-73
2022/08/28 07:04:52;;;;;;;29.33;21.73;;;20.00;80.30;;;;;;5014293;28;20076;-74
2022/08/28 07:07:18;;;;;;;36.08;23.80;;;20.00;80.40;;;;;;5014397;28;20352;-74
2022/08/28 07:09:44;;;;;;;27.95;19.90;;;19.90;80.90;;;;;;5014464;28;20480;-74
2022/08/28 07:12:12;;;;;;;34.97;21.95;;;20.00;80.80;;;;;;5014388;28;20109;-73
2022/08/28 07:14:38;;;;;;;31.42;17.35;;;20.10;80.90;;;;;;4996745;28;20041;-75
2022/08/28 07:17:06;;;;;;;24.88;16.30;;;20.20;80.20;;;;;;5014361;28;20047;-79
2022/08/28 07:19:32;;;;;;;31.00;20.20;;;20.30;79.60;;;;;;5014299;28;20505;-75
2022/08/28 07:21:58;;;;;;;25.40;18.02;;;20.30;79.30;;;;;;5018274;28;20030;-74
2022/08/28 07:24:23;;;;;;;21.30;15.77;;;20.40;78.40;;;;;;5015050;28;20474;-76
2022/08/28 07:26:49;;;;;;;22.40;16.17;;;20.60;78.00;;;;;;5015005;28;20030;-77
2022/08/28 07:29:16;;;;;;;18.80;14.60;;;20.70;77.40;;;;;;5014415;28;20022;-77
2022/08/28 07:31:49;;;;;;;23.88;16.35;;;20.80;76.90;;;;;;4996937;28;20026;-77
2022/08/28 07:34:17;;;;;;;21.00;14.60;;;21.00;76.10;;;;;;5014112;28;20478;-78
2022/08/28 07:36:43;;;;;;;16.77;13.85;;;21.10;75.80;;;;;;5014124;28;20042;-77
2022/08/28 07:39:11;;;;;;;21.55;13.48;;;21.30;75.60;;;;;;5013788;28;20109;-76
2022/08/28 07:41:39;;;;;;;20.15;15.23;;;21.40;74.80;;;;;;5013894;28;20029;-76
2022/08/28 07:46:54;;;;;;;17.30;12.98;;;21.50;73.80;;;;;;5014098;28;20044;-76
2022/08/28 07:49:20;;;;;;;12.43;10.20;;;21.50;73.50;;;;;;5013723;28;20105;-72
2022/08/28 07:51:46;;;;;;;14.25;11.35;;;21.50;73.50;;;;;;5013752;28;20474;-74
2022/08/28 07:54:11;;;;;;;16.55;12.40;;;21.50;73.20;;;;;;5013645;28;20117;-76
2022/08/28 07:56:39;;;;;;;14.40;11.65;;;21.50;73.10;;;;;;5013754;28;20045;-76
2022/08/28 07:59:06;;;;;;;14.27;11.80;;;21.60;73.10;;;;;;5013424;28;20021;-76
2022/08/28 08:01:37;;;;;;;17.98;11.38;;;21.70;73.20;;;;;;5013682;28;20030;-76
2022/08/28 08:04:06;;;;;;;11.43;10.23;;;21.70;73.30;;;;;;5013582;28;20036;-76
2022/08/28 08:06:32;;;;;;;16.17;11.82;;;21.80;72.90;;;;;;5013589;28;20471;-75
2022/08/28 08:08:58;;;;;;;15.00;11.77;;;21.80;72.00;;;;;;4996000;28;20026;-76
2022/08/28 08:11:25;;;;;;;13.40;11.27;;;21.90;72.30;;;;;;5013350;28;20073;-74
2022/08/28 08:13:52;;;;;;;18.08;13.00;;;22.00;71.90;;;;;;5013575;28;20112;-75
2022/08/28 08:16:21;;;;;;;21.88;14.18;;;22.00;71.70;;;;;;5012493;28;20533;-75
2022/08/28 08:18:48;;;;;;;15.93;10.60;;;22.10;71.20;;;;;;5012998;28;20426;-75
2022/08/28 08:21:20;;;;;;;15.77;11.30;;;22.10;71.20;;;;;;5013329;28;20498;-76
2022/08/28 08:23:46;;;;;;;12.57;9.60;;;22.20;71.10;;;;;;5013468;28;20034;-75
2022/08/28 08:26:19;;;;;;;9.07;8.13;;;22.20;71.00;;;;;;5013353;28;20030;-74
2022/08/28 08:28:45;;;;;;;10.98;7.95;;;22.20;70.30;;;;;;5013150;28;20030;-74
2022/08/28 08:31:14;;;;;;;8.90;7.45;;;22.20;69.60;;;;;;5013244;28;20018;-74
2022/08/28 08:33:43;;;;;;;9.65;6.47;;;22.30;69.20;;;;;;5019968;28;20451;-75
2022/08/28 08:36:11;;;;;;;9.75;7.47;;;22.30;69.00;;;;;;5022379;28;20100;-75
2022/08/28 08:38:37;;;;;;;7.90;6.78;;;22.40;68.90;;;;;;5021095;28;20482;-75
2022/08/28 08:41:46;;;;;;;12.05;8.05;;;22.50;68.40;;;;;;5020420;28;20112;-75
2022/08/28 08:44:36;;;;;;;10.15;7.53;;;22.40;67.20;;;;;;5017482;28;20124;-75
2022/08/28 08:47:22;;;;;;;10.70;7.20;;;22.40;67.30;;;;;;5021944;28;20037;-75
2022/08/28 08:50:02;;;;;;;9.35;7.00;;;22.60;67.00;;;;;;5015368;28;20038;-75
2022/08/28 08:52:53;;;;;;;8.20;6.22;;;22.60;66.80;;;;;;4995726;28;20391;-75
2022/08/28 08:55:23;;;;;;;8.30;6.60;;;22.60;65.70;;;;;;5012859;28;20108;-74
2022/08/28 08:58:00;;;;;;;5.80;5.20;;;22.60;65.70;;;;;;5012482;28;20021;-75
2022/08/28 09:00:27;;;;;;;8.38;5.90;;;22.60;65.90;;;;;;5013752;28;20046;-75
2022/08/28 09:03:00;;;;;;;9.93;6.80;;;22.60;66.10;;;;;;5016681;28;20034;-75
2022/08/28 09:05:45;;;;;;;8.20;7.07;;;22.70;66.40;;;;;;5016642;28;20018;-75
2022/08/28 09:08:20;;;;;;;14.20;7.78;;;22.80;66.80;;;;;;5016477;28;20473;-75
2022/08/28 09:10:59;;;;;;;;;;;22.80;66.80;;;;;;5016476;28;20109;-74
2022/08/28 09:14:01;;;;;;;23.60;14.57;;;22.70;67.30;;;;;;5016383;28;19913;-74
2022/08/28 09:16:40;;;;;;;15.77;11.40;;;22.60;68.40;;;;;;5005931;28;20497;-74
2022/08/28 09:19:08;;;;;;;16.85;12.68;;;22.40;69.00;;;;;;5016513;28;20540;-75
2022/08/28 09:21:39;;;;;;;13.30;10.38;;;22.30;69.70;;;;;;5016425;28;20018;-74
2022/08/28 09:24:10;;;;;;;9.23;8.13;;;22.20;69.70;;;;;;4998752;28;20026;-74
2022/08/28 09:26:37;;;;;;;12.27;9.05;;;22.20;69.70;;;;;;5016235;28;20089;-74
2022/08/28 09:29:15;;;;;;;11.20;9.00;;;22.30;69.80;;;;;;5016314;28;20455;-75
2022/08/28 09:31:41;;;;;;;11.05;8.98;;;22.40;69.40;;;;;;4998959;28;20133;-74
2022/08/28 09:34:37;;;;;;;10.32;9.23;;;22.40;69.20;;;;;;5016185;28;20526;-74
2022/08/28 09:37:07;;;;;;;12.13;9.32;;;22.40;69.20;;;;;;5016065;28;20041;-74
2022/08/28 09:39:37;;;;;;;16.17;10.43;;;22.50;69.40;;;;;;5016045;28;20467;-74
2022/08/28 09:45:10;;;;;;;10.90;8.77;;;22.40;69.40;;;;;;5015886;28;20084;-74
2022/08/28 09:47:56;;;;;;;10.68;8.98;;;22.40;69.50;;;;;;4998349;28;20025;-76
2022/08/28 09:50:42;;;;;;;11.30;7.43;;;22.50;69.30;;;;;;5015952;28;20093;-75
2022/08/28 09:53:07;;;;;;;10.50;7.35;;;22.60;68.90;;;;;;5015194;28;20030;-75
2022/08/28 09:56:10;;;;;;;11.88;8.23;;;22.70;68.60;;;;;;5014926;28;20080;-77
2022/08/28 09:58:48;;;;;;;10.57;8.30;;;22.70;68.30;;;;;;5015596;28;20108;-77
2022/08/28 10:01:14;;;;;;;12.25;7.82;;;22.80;68.00;;;;;;5015078;28;20054;-77
2022/08/28 10:04:25;;;;;;;12.85;8.55;;;22.80;67.70;;;;;;5015689;28;20045;-75
2022/08/28 10:06:58;;;;;;;10.63;7.78;;;22.70;67.70;;;;;;5007262;28;20167;-75
2022/08/28 10:09:50;;;;;;;9.15;8.00;;;22.60;67.90;;;;;;5015693;28;20022;-77
2022/08/28 10:12:31;;;;;;;9.02;6.63;;;22.60;68.00;;;;;;4996923;28;20029;-77
2022/08/28 10:15:07;;;;;;;10.02;6.88;;;22.70;68.20;;;;;;4997474;28;20104;-75
2022/08/28 10:18:17;;;;;;;13.38;7.45;;;22.90;67.80;;;;;;4997803;28;20061;-78
2022/08/28 10:21:16;;;;;;;15.45;7.10;;;23.10;67.30;;;;;;5015691;28;20053;-77
2022/08/28 10:24:07;;;;;;;10.25;8.07;;;23.50;66.30;;;;;;5016925;28;20499;-76
2022/08/28 10:26:56;;;;;;;10.57;8.00;;;23.80;63.50;;;;;;5016266;28;20470;-76
2022/08/28 10:29:27;;;;;;;9.65;7.28;;;24.00;63.30;;;;;;4988127;28;20026;-75
2022/08/28 10:32:02;;;;;;;9.88;6.53;;;23.90;64.00;;;;;;5017138;28;20076;-77
2022/08/28 10:34:39;;;;;;;9.95;6.90;;;24.00;63.80;;;;;;5016712;28;20037;-77
2022/08/28 10:37:34;;;;;;;10.45;6.07;;;24.20;63.40;;;;;;5018033;28;20475;-75
2022/08/28 10:40:07;;;;;;;10.38;6.25;;;24.30;62.60;;;;;;5015376;28;20026;-77
2022/08/28 10:43:27;;;;;;;7.20;5.70;;;24.40;61.50;;;;;;5016241;28;20034;-76
2022/08/28 10:46:04;;;;;;;8.20;6.35;;;24.50;61.00;;;;;;4954737;29;20031;-77
2022/08/28 10:48:49;;;;;;;8.93;5.75;;;24.60;60.00;;;;;;5014863;28;20498;-77
2022/08/28 10:51:40;;;;;;;11.00;6.83;;;24.70;59.80;;;;;;5015744;28;20034;-75
2022/08/28 10:54:26;;;;;;;13.35;6.00;;;24.70;59.40;;;;;;5015924;28;20033;-78
2022/08/28 10:57:16;;;;;;;10.45;6.40;;;24.70;59.50;;;;;;5014180;28;20037;-76
2022/08/28 10:59:47;;;;;;;12.30;6.57;;;24.70;58.90;;;;;;4997933;28;20052;-77
2022/08/28 11:02:15;;;;;;;8.45;5.88;;;24.80;58.50;;;;;;5016052;28;20022;-77
2022/08/28 11:04:41;;;;;;;11.25;6.38;;;25.00;58.10;;;;;;5015150;28;20026;-77
2022/08/28 11:07:14;;;;;;;10.38;5.93;;;25.20;58.00;;;;;;5016516;28;20109;-76
2022/08/28 11:09:47;;;;;;;9.43;6.05;;;25.30;56.60;;;;;;5015465;28;20030;-77
2022/08/28 11:12:15;;;;;;;9.77;5.95;;;25.80;55.80;;;;;;5014867;28;20049;-77
2022/08/28 11:14:45;;;;;;;7.25;5.30;;;26.30;54.00;;;;;;5014380;28;20048;-75
2022/08/28 11:17:26;;;;;;;7.85;5.78;;;26.80;51.70;;;;;;5014240;28;20082;-76
2022/08/28 11:20:05;;;;;;;9.20;5.30;;;27.10;51.00;;;;;;4996833;28;20029;-76
2022/08/28 11:22:35;;;;;;;5.78;5.18;;;27.40;49.90;;;;;;5013802;28;20029;-75
2022/08/28 11:25:45;;;;;;;6.97;4.70;;;27.20;48.60;;;;;;5014134;28;20497;-75
2022/08/28 11:28:23;;;;;;;6.57;5.22;;;27.20;50.40;;;;;;5013624;28;20033;-76
2022/08/28 11:31:11;;;;;;;6.65;5.45;;;27.10;49.80;;;;;;5013748;28;20026;-76
2022/08/28 11:33:42;;;;;;;8.57;5.88;;;27.40;49.20;;;;;;5013382;28;20026;-77
2022/08/28 11:36:31;;;;;;;5.65;4.60;;;27.40;47.30;;;;;;5013714;28;20041;-77
2022/08/28 11:39:12;;;;;;;9.73;5.30;;;27.70;47.80;;;;;;5013419;28;20014;-76
2022/08/28 11:41:58;;;;;;;5.30;4.72;;;28.00;46.60;;;;;;5013674;28;20032;-75
2022/08/28 11:44:36;;;;;;;6.05;5.32;;;28.10;45.30;;;;;;5013452;28;20030;-77
2022/08/28 11:47:43;;;;;;;6.82;5.05;;;27.90;45.20;;;;;;5013713;28;20026;-78
2022/08/28 11:50:38;;;;;;;;;;;27.90;45.30;;;;;;4953414;29;20031;-77
2022/08/28 11:53:32;;;;;;;6.60;5.18;;;27.90;44.90;;;;;;4902671;29;19915;-77
2022/08/28 11:56:30;;;;;;;6.32;4.38;;;27.80;46.00;;;;;;5005872;28;20427;-75
2022/08/28 11:59:24;;;;;;;6.00;4.57;;;27.60;46.40;;;;;;5013447;28;20025;-75
2022/08/28 12:01:50;;;;;;;8.32;4.53;;;27.40;46.80;;;;;;5013258;28;20056;-75
2022/08/28 12:04:19;;;;;;;8.23;4.90;;;27.20;47.20;;;;;;5013607;28;20025;-75
2022/08/28 12:06:49;;;;;;;7.22;4.80;;;27.00;47.90;;;;;;4995669;28;20026;-75
2022/08/28 12:09:37;;;;;;;5.05;4.20;;;26.90;47.90;;;;;;5013264;28;20407;-74
2022/08/28 12:12:21;;;;;;;5.50;4.57;;;26.90;47.50;;;;;;5013362;28;20134;-74
2022/08/28 12:14:46;;;;;;;8.57;5.80;;;26.80;47.70;;;;;;5013345;28;20038;-74
2022/08/28 12:17:21;;;;;;;10.70;5.65;;;26.80;47.50;;;;;;5013288;28;20382;-74
2022/08/28 12:19:55;;;;;;;8.20;5.72;;;26.60;48.20;;;;;;4995689;28;20505;-75
2022/08/28 12:22:25;;;;;;;6.05;4.78;;;26.50;49.20;;;;;;5013334;28;20062;-76
2022/08/28 12:24:58;;;;;;;9.98;5.30;;;26.60;49.40;;;;;;4995632;28;20033;-76
2022/08/28 12:27:24;;;;;;;10.82;6.00;;;27.10;48.70;;;;;;5013235;28;20022;-76
2022/08/28 12:29:54;;;;;;;5.72;5.13;;;27.50;47.30;;;;;;5013118;28;20030;-76
2022/08/28 12:32:27;;;;;;;6.53;4.88;;;27.60;46.60;;;;;;5013079;28;20079;-76
2022/08/28 12:34:58;;;;;;;6.57;4.55;;;27.80;46.10;;;;;;5013683;28;20034;-75
2022/08/28 12:37:38;;;;;;;8.57;5.60;;;27.90;45.70;;;;;;5017263;28;20483;-75
2022/08/28 12:40:14;;;;;;;5.93;4.85;;;28.10;44.70;;;;;;5017082;28;20632;-75
2022/08/28 12:42:50;;;;;;;7.50;4.35;;;27.90;44.10;;;;;;5017527;28;20018;-74
2022/08/28 12:45:26;;;;;;;6.85;4.53;;;27.70;44.80;;;;;;5000813;28;20030;-74
2022/08/28 12:47:56;;;;;;;6.55;4.70;;;27.50;44.50;;;;;;5017710;28;20022;-73
2022/08/28 12:50:25;;;;;;;10.93;5.03;;;27.10;45.40;;;;;;4999959;28;20095;-74
2022/08/28 12:52:54;;;;;;;7.60;4.90;;;26.80;45.60;;;;;;5016857;28;20026;-75
2022/08/28 12:55:21;;;;;;;7.10;5.72;;;26.60;46.40;;;;;;5017064;28;20382;-74
2022/08/28 12:57:48;;;;;;;12.90;7.72;;;26.40;46.80;;;;;;5016947;28;20109;-74
2022/08/28 13:00:28;;;;;;;8.30;4.82;;;26.30;48.10;;;;;;5016762;28;20388;-73
2022/08/28 13:02:55;;;;;;;5.72;4.57;;;26.40;48.20;;;;;;5016908;28;20022;-76
2022/08/28 13:05:29;;;;;;;7.85;4.53;;;26.50;48.60;;;;;;5017104;28;20053;-73